AFL593F UUEE-VHHX
Flight info
| Callsign | AFL593F |
|---|---|
| Flight time | N/A |
| Altitude | 31000 |
| Route | KOGOM3H KOGOM L94 EKPIR M864 INKEB L94 NAMER T765 GEMKI L94 OKETI/K0878F330 R234 ABESA L158 NOSPI A575 DARNO/K0867S1010 Y746 NIXAL G343 TMR/K0878S1070 B458 DADGA/K0874S1040 W37 UDUMI/K0876S1100 W37 GUSIV/K0874S1070 W37 PEXID/K0876S1100 W37 OMBEB/K0872S1070 R473 BEMAG/K0874S1100 V5 CON A599 POU |
| Aircraft | B772/H-SDE2E3FGHIJ5LORVWXY/LB1D1 |
Departure
| Time | N/A |
|---|---|
| Airport | Sheremetyevo International Airport (UUEE) |
Arrival
| Time | 2026-04-27 10:42 |
|---|---|
| Airport | Hong Kong International Airport Kai Tak (VHHX) |
| Time | Latitude | Longitude | Altitude | Speed | Heading |
|---|---|---|---|---|---|
| 2026-04-27 10:09 | 22.35205 | 112.72252 | 36900 ft | 440 kts | 218° |
| 2026-04-27 10:10 | 22.30054 | 112.68661 | 36902 ft | 441 kts | 218° |
| 2026-04-27 10:10 | 22.24777 | 112.65298 | 36791 ft | 445 kts | 203° |
| 2026-04-27 10:11 | 22.21708 | 112.64727 | 36297 ft | 455 kts | 182° |
| 2026-04-27 10:11 | 22.18567 | 112.65299 | 35775 ft | 463 kts | 166° |
| 2026-04-27 10:11 | 22.15609 | 112.66677 | 35400 ft | 464 kts | 154° |
| 2026-04-27 10:11 | 22.12971 | 112.68649 | 35137 ft | 461 kts | 141° |
| 2026-04-27 10:12 | 22.10826 | 112.71184 | 34921 ft | 456 kts | 126° |
| 2026-04-27 10:12 | 22.09295 | 112.74151 | 34667 ft | 451 kts | 113° |
| 2026-04-27 10:12 | 22.08444 | 112.77384 | 34298 ft | 448 kts | 95° |
| 2026-04-27 10:12 | 22.08617 | 112.80665 | 33783 ft | 445 kts | 72° |
| 2026-04-27 10:13 | 22.09912 | 112.83642 | 33184 ft | 437 kts | 48° |
| 2026-04-27 10:13 | 22.11918 | 112.86040 | 32611 ft | 427 kts | 49° |
| 2026-04-27 10:13 | 22.13384 | 112.88839 | 31939 ft | 435 kts | 73° |
| 2026-04-27 10:13 | 22.13758 | 112.92051 | 31421 ft | 433 kts | 96° |
| 2026-04-27 10:14 | 22.13351 | 112.95243 | 31076 ft | 427 kts | 102° |
| 2026-04-27 10:14 | 22.12860 | 112.98390 | 30736 ft | 423 kts | 99° |
| 2026-04-27 10:14 | 22.12557 | 113.01533 | 30379 ft | 420 kts | 94° |
| 2026-04-27 10:14 | 22.12486 | 113.04675 | 30011 ft | 418 kts | 90° |
| 2026-04-27 10:15 | 22.12599 | 113.07805 | 29582 ft | 416 kts | 87° |
| 2026-04-27 10:15 | 22.12828 | 113.10905 | 29156 ft | 413 kts | 85° |
| 2026-04-27 10:15 | 22.13117 | 113.13977 | 28754 ft | 410 kts | 84° |
| 2026-04-27 10:15 | 22.13431 | 113.17025 | 28363 ft | 408 kts | 84° |
| 2026-04-27 10:16 | 22.13750 | 113.20059 | 27958 ft | 405 kts | 84° |
| 2026-04-27 10:16 | 22.14066 | 113.23063 | 27573 ft | 403 kts | 84° |
| 2026-04-27 10:16 | 22.14377 | 113.26059 | 27181 ft | 400 kts | 84° |
| 2026-04-27 10:16 | 22.14678 | 113.28995 | 26805 ft | 398 kts | 84° |
| 2026-04-27 10:17 | 22.14978 | 113.31948 | 26428 ft | 396 kts | 84° |
| 2026-04-27 10:17 | 22.15275 | 113.34898 | 26065 ft | 394 kts | 84° |
| 2026-04-27 10:17 | 22.15568 | 113.37826 | 25731 ft | 392 kts | 84° |
| 2026-04-27 10:17 | 22.15859 | 113.40736 | 25407 ft | 390 kts | 84° |
| 2026-04-27 10:18 | 22.16148 | 113.43637 | 25066 ft | 388 kts | 85° |
| 2026-04-27 10:18 | 22.16436 | 113.46533 | 24669 ft | 389 kts | 85° |
| 2026-04-27 10:18 | 22.16724 | 113.49428 | 24318 ft | 388 kts | 85° |
| 2026-04-27 10:18 | 22.17030 | 113.52309 | 24009 ft | 385 kts | 84° |
| 2026-04-27 10:19 | 22.17369 | 113.55170 | 23723 ft | 383 kts | 83° |
| 2026-04-27 10:19 | 22.17715 | 113.58005 | 23401 ft | 381 kts | 83° |
| 2026-04-27 10:19 | 22.18053 | 113.60830 | 23040 ft | 379 kts | 84° |
| 2026-04-27 10:19 | 22.18335 | 113.63649 | 22696 ft | 376 kts | 85° |
| 2026-04-27 10:20 | 22.18588 | 113.66438 | 22359 ft | 373 kts | 85° |
| 2026-04-27 10:20 | 22.18836 | 113.69212 | 22033 ft | 370 kts | 85° |
| 2026-04-27 10:20 | 22.19085 | 113.71968 | 21699 ft | 368 kts | 85° |
| 2026-04-27 10:20 | 22.19332 | 113.74669 | 21373 ft | 366 kts | 85° |
| 2026-04-27 10:21 | 22.19583 | 113.77391 | 21028 ft | 364 kts | 85° |
| 2026-04-27 10:21 | 22.19834 | 113.80100 | 20698 ft | 362 kts | 85° |
| 2026-04-27 10:21 | 22.20085 | 113.82791 | 20385 ft | 359 kts | 85° |
| 2026-04-27 10:21 | 22.20334 | 113.85465 | 20094 ft | 357 kts | 85° |
| 2026-04-27 10:22 | 22.20580 | 113.88117 | 19799 ft | 354 kts | 85° |
| 2026-04-27 10:22 | 22.20824 | 113.90750 | 19497 ft | 352 kts | 85° |
| 2026-04-27 10:22 | 22.21066 | 113.93368 | 19203 ft | 350 kts | 85° |
| 2026-04-27 10:22 | 22.21308 | 113.95978 | 18879 ft | 349 kts | 85° |
| 2026-04-27 10:23 | 22.21547 | 113.98575 | 18600 ft | 346 kts | 85° |
| 2026-04-27 10:23 | 22.21782 | 114.01123 | 18496 ft | 336 kts | 85° |
| 2026-04-27 10:23 | 22.22001 | 114.03598 | 18400 ft | 326 kts | 87° |
| 2026-04-27 10:23 | 22.22144 | 114.06009 | 18272 ft | 318 kts | 88° |
| 2026-04-27 10:24 | 22.22255 | 114.08376 | 18031 ft | 313 kts | 89° |
| 2026-04-27 10:24 | 22.22363 | 114.10651 | 17904 ft | 303 kts | 89° |
| 2026-04-27 10:24 | 22.22474 | 114.12881 | 17736 ft | 292 kts | 89° |
| 2026-04-27 10:24 | 22.22585 | 114.15037 | 17367 ft | 283 kts | 89° |
| 2026-04-27 10:25 | 22.22694 | 114.17150 | 16828 ft | 281 kts | 89° |
| 2026-04-27 10:25 | 22.22731 | 114.19250 | 16251 ft | 278 kts | 103° |
| 2026-04-27 10:25 | 22.22067 | 114.21139 | 15714 ft | 266 kts | 129° |
| 2026-04-27 10:25 | 22.20852 | 114.22581 | 15232 ft | 256 kts | 146° |
| 2026-04-27 10:26 | 22.19374 | 114.23599 | 14738 ft | 249 kts | 161° |
| 2026-04-27 10:26 | 22.17744 | 114.24114 | 14238 ft | 242 kts | 177° |
| 2026-04-27 10:26 | 22.16086 | 114.24079 | 13740 ft | 237 kts | 193° |
| 2026-04-27 10:26 | 22.14544 | 114.23519 | 13194 ft | 233 kts | 210° |
| 2026-04-27 10:27 | 22.13244 | 114.22506 | 12656 ft | 230 kts | 226° |
| 2026-04-27 10:27 | 22.12284 | 114.21139 | 12140 ft | 229 kts | 242° |
| 2026-04-27 10:27 | 22.11737 | 114.19538 | 11637 ft | 228 kts | 258° |
| 2026-04-27 10:27 | 22.11642 | 114.17834 | 11140 ft | 229 kts | 274° |
| 2026-04-27 10:28 | 22.11997 | 114.16160 | 10649 ft | 230 kts | 287° |
| 2026-04-27 10:28 | 22.12631 | 114.14578 | 10187 ft | 230 kts | 296° |
| 2026-04-27 10:28 | 22.13634 | 114.13237 | 9698 ft | 233 kts | 323° |
| 2026-04-27 10:28 | 22.15093 | 114.12442 | 9134 ft | 234 kts | 327° |
| 2026-04-27 10:29 | 22.16439 | 114.11479 | 8606 ft | 232 kts | 321° |
| 2026-04-27 10:29 | 22.17740 | 114.10466 | 8223 ft | 229 kts | 322° |
| 2026-04-27 10:29 | 22.19006 | 114.09521 | 8101 ft | 218 kts | 323° |
| 2026-04-27 10:29 | 22.20180 | 114.08571 | 8002 ft | 204 kts | 307° |
| 2026-04-27 10:30 | 22.20913 | 114.07290 | 8020 ft | 202 kts | 290° |
| 2026-04-27 10:30 | 22.21325 | 114.05845 | 8014 ft | 200 kts | 278° |
| 2026-04-27 10:30 | 22.21515 | 114.04364 | 8004 ft | 199 kts | 271° |
| 2026-04-27 10:30 | 22.21570 | 114.02879 | 7995 ft | 198 kts | 268° |
| 2026-04-27 10:31 | 22.21443 | 114.01433 | 7992 ft | 191 kts | 256° |
| 2026-04-27 10:31 | 22.21434 | 113.99995 | 7994 ft | 198 kts | 282° |
| 2026-04-27 10:31 | 22.21921 | 113.98600 | 7975 ft | 200 kts | 288° |
| 2026-04-27 10:31 | 22.22412 | 113.97186 | 7655 ft | 201 kts | 281° |
| 2026-04-27 10:32 | 22.22438 | 113.95716 | 7216 ft | 194 kts | 256° |
| 2026-04-27 10:32 | 22.22168 | 113.94304 | 6859 ft | 192 kts | 257° |
| 2026-04-27 10:32 | 22.21935 | 113.92871 | 6447 ft | 194 kts | 257° |
| 2026-04-27 10:32 | 22.21705 | 113.91434 | 6095 ft | 192 kts | 257° |
| 2026-04-27 10:33 | 22.21507 | 113.90004 | 5984 ft | 192 kts | 266° |
| 2026-04-27 10:33 | 22.21893 | 113.88651 | 5788 ft | 192 kts | 304° |
| 2026-04-27 10:33 | 22.22938 | 113.87822 | 5651 ft | 187 kts | 339° |
| 2026-04-27 10:33 | 22.24223 | 113.87668 | 5490 ft | 189 kts | 8° |
| 2026-04-27 10:34 | 22.25420 | 113.88199 | 5383 ft | 190 kts | 34° |
| 2026-04-27 10:34 | 22.26542 | 113.88972 | 5229 ft | 191 kts | 33° |
| 2026-04-27 10:34 | 22.27664 | 113.89722 | 5082 ft | 186 kts | 32° |
| 2026-04-27 10:34 | 22.28748 | 113.90446 | 4911 ft | 181 kts | 34° |
| 2026-04-27 10:35 | 22.29732 | 113.91272 | 4775 ft | 180 kts | 44° |
| 2026-04-27 10:35 | 22.30664 | 113.92217 | 4667 ft | 187 kts | 45° |
| 2026-04-27 10:35 | 22.31487 | 113.93257 | 4562 ft | 178 kts | 69° |
| 2026-04-27 10:35 | 22.31731 | 113.94522 | 4507 ft | 167 kts | 86° |
| 2026-04-27 10:36 | 22.31922 | 113.95735 | 4416 ft | 162 kts | 82° |
| 2026-04-27 10:36 | 22.32097 | 113.96925 | 4165 ft | 157 kts | 86° |
| 2026-04-27 10:36 | 22.32203 | 113.98076 | 3917 ft | 151 kts | 89° |
| 2026-04-27 10:36 | 22.32276 | 113.99198 | 3730 ft | 148 kts | 92° |
| 2026-04-27 10:37 | 22.32335 | 114.00298 | 3549 ft | 148 kts | 91° |
| 2026-04-27 10:37 | 22.32393 | 114.01416 | 3371 ft | 149 kts | 91° |
| 2026-04-27 10:37 | 22.32449 | 114.02540 | 3117 ft | 147 kts | 91° |
| 2026-04-27 10:37 | 22.32503 | 114.03627 | 2970 ft | 145 kts | 92° |
| 2026-04-27 10:38 | 22.32558 | 114.04719 | 2777 ft | 148 kts | 91° |
| 2026-04-27 10:38 | 22.32613 | 114.05805 | 2557 ft | 141 kts | 92° |
| 2026-04-27 10:38 | 22.32664 | 114.06846 | 2373 ft | 140 kts | 91° |
| 2026-04-27 10:38 | 22.32714 | 114.07885 | 2153 ft | 138 kts | 88° |
| 2026-04-27 10:39 | 22.32834 | 114.08905 | 1958 ft | 133 kts | 85° |
| 2026-04-27 10:39 | 22.32922 | 114.09921 | 1847 ft | 137 kts | 88° |
| 2026-04-27 10:39 | 22.32963 | 114.10941 | 1663 ft | 133 kts | 90° |
| 2026-04-27 10:39 | 22.32997 | 114.11930 | 1425 ft | 134 kts | 88° |
| 2026-04-27 10:40 | 22.33057 | 114.12927 | 1219 ft | 134 kts | 86° |
| 2026-04-27 10:40 | 22.33123 | 114.13938 | 943 ft | 133 kts | 86° |
| 2026-04-27 10:40 | 22.33190 | 114.14928 | 794 ft | 132 kts | 88° |
| 2026-04-27 10:40 | 22.33235 | 114.15947 | 715 ft | 139 kts | 86° |
| 2026-04-27 10:41 | 22.33332 | 114.16966 | 648 ft | 136 kts | 85° |
| 2026-04-27 10:41 | 22.33303 | 114.18005 | 462 ft | 139 kts | 104° |
| 2026-04-27 10:41 | 22.32840 | 114.18900 | 247 ft | 138 kts | 131° |
| 2026-04-27 10:41 | 22.32180 | 114.19649 | 88 ft | 137 kts | 133° |
| 2026-04-27 10:42 | 22.31558 | 114.20348 | 42 ft | 117 kts | 135° |
| 2026-04-27 10:42 | 22.31085 | 114.20875 | 41 ft | 79 kts | 134° |
| 2026-04-27 10:42 | 22.30801 | 114.21187 | 41 ft | 47 kts | 134° |
| 2026-04-27 10:42 | 22.30663 | 114.21341 | 41 ft | 13 kts | 134° |
| 2026-04-27 10:43 | 22.30638 | 114.21398 | 40 ft | 8 kts | 84° |
| 2026-04-27 10:43 | 22.30671 | 114.21446 | 42 ft | 8 kts | 45° |
| 2026-04-27 10:43 | 22.30711 | 114.21489 | 42 ft | 8 kts | 43° |
| 2026-04-27 10:43 | 22.30761 | 114.21514 | 42 ft | 8 kts | 11° |
| 2026-04-27 10:44 | 22.30814 | 114.21497 | 42 ft | 8 kts | 320° |
| 2026-04-27 10:44 | 22.30848 | 114.21448 | 40 ft | 8 kts | 306° |
| 2026-04-27 10:44 | 22.30876 | 114.21395 | 41 ft | 8 kts | 291° |
| 2026-04-27 10:44 | 22.30891 | 114.21336 | 41 ft | 8 kts | 283° |
| 2026-04-27 10:45 | 22.30902 | 114.21276 | 43 ft | 8 kts | 280° |
| 2026-04-27 10:45 | 22.30920 | 114.21218 | 42 ft | 8 kts | 298° |
| 2026-04-27 10:45 | 22.30954 | 114.21169 | 42 ft | 8 kts | 310° |
| 2026-04-27 10:45 | 22.30992 | 114.21124 | 42 ft | 8 kts | 315° |
| 2026-04-27 10:46 | 22.31032 | 114.21081 | 42 ft | 8 kts | 314° |
| 2026-04-27 10:46 | 22.31072 | 114.21038 | 41 ft | 8 kts | 315° |
| 2026-04-27 10:46 | 22.31122 | 114.20984 | 41 ft | 13 kts | 314° |
| 2026-04-27 10:46 | 22.31199 | 114.20898 | 41 ft | 19 kts | 314° |
| 2026-04-27 10:47 | 22.31300 | 114.20784 | 42 ft | 23 kts | 314° |
| 2026-04-27 10:47 | 22.31423 | 114.20646 | 40 ft | 27 kts | 314° |
| 2026-04-27 10:47 | 22.31553 | 114.20500 | 42 ft | 27 kts | 314° |
| 2026-04-27 10:47 | 22.31684 | 114.20353 | 42 ft | 27 kts | 314° |
| 2026-04-27 10:48 | 22.31815 | 114.20207 | 42 ft | 27 kts | 314° |
| 2026-04-27 10:48 | 22.31946 | 114.20061 | 42 ft | 27 kts | 314° |
| 2026-04-27 10:48 | 22.32076 | 114.19916 | 42 ft | 24 kts | 314° |
| 2026-04-27 10:48 | 22.32191 | 114.19788 | 41 ft | 24 kts | 314° |
| 2026-04-27 10:49 | 22.32287 | 114.19685 | 42 ft | 13 kts | 327° |
| 2026-04-27 10:49 | 22.32325 | 114.19679 | 42 ft | 4 kts | 23° |
| 2026-04-27 10:49 | 22.32346 | 114.19699 | 42 ft | 4 kts | 45° |
| 2026-04-27 10:49 | 22.32365 | 114.19720 | 42 ft | 4 kts | 45° |
| 2026-04-27 10:50 | 22.32379 | 114.19735 | 42 ft | 0 kts | 45° |
| 2026-04-27 10:53 | 22.32392 | 114.19749 | 41 ft | 7 kts | 45° |
| 2026-04-27 10:53 | 22.32460 | 114.19818 | 42 ft | 7 kts | 39° |
| 2026-04-27 10:53 | 22.32498 | 114.19848 | 42 ft | 5 kts | 33° |
| 2026-04-27 10:54 | 22.32498 | 114.19849 | 42 ft | 0 kts | 33° |
| 2026-04-27 10:55 | 22.32510 | 114.19856 | 42 ft | 7 kts | 31° |
| 2026-04-27 10:55 | 22.32551 | 114.19881 | 42 ft | 7 kts | 25° |
| 2026-04-27 10:55 | 22.32595 | 114.19900 | 42 ft | 7 kts | 19° |
| 2026-04-27 10:56 | 22.32640 | 114.19915 | 42 ft | 7 kts | 14° |
| 2026-04-27 10:56 | 22.32686 | 114.19926 | 42 ft | 7 kts | 11° |
| 2026-04-27 10:56 | 22.32732 | 114.19935 | 42 ft | 7 kts | 9° |
| 2026-04-27 10:56 | 22.32778 | 114.19943 | 42 ft | 7 kts | 9° |
| 2026-04-27 10:57 | 22.32825 | 114.19952 | 42 ft | 7 kts | 12° |
| 2026-04-27 10:57 | 22.32870 | 114.19966 | 42 ft | 7 kts | 21° |
| 2026-04-27 10:57 | 22.32909 | 114.19992 | 42 ft | 7 kts | 45° |
| 2026-04-27 10:57 | 22.32929 | 114.20034 | 41 ft | 7 kts | 77° |
| 2026-04-27 10:58 | 22.32933 | 114.20068 | 42 ft | 0 kts | 84° |
| 2026-04-27 11:00 | 22.32934 | 114.20068 | 39 ft | 0 kts | 85° |